sensor_id;sensor_type;location;lat;lon;timestamp;P1;durP1;ratioP1;P2;durP2;ratioP2
7969;SDS011;4030;52.362;9.206;2023-09-19T00:00:44;2.05;;;1.00;;
7969;SDS011;4030;52.362;9.206;2023-09-19T00:03:12;1.95;;;1.00;;
7969;SDS011;4030;52.362;9.206;2023-09-19T00:05:38;1.73;;;1.10;;
7969;SDS011;4030;52.362;9.206;2023-09-19T00:08:04;1.70;;;1.00;;
7969;SDS011;4030;52.362;9.206;2023-09-19T00:10:33;2.25;;;1.10;;
7969;SDS011;4030;52.362;9.206;2023-09-19T00:13:02;2.03;;;1.30;;
7969;SDS011;4030;52.362;9.206;2023-09-19T00:15:38;2.03;;;1.10;;
7969;SDS011;4030;52.362;9.206;2023-09-19T00:18:06;2.78;;;1.13;;
7969;SDS011;4030;52.362;9.206;2023-09-19T00:20:37;1.98;;;1.10;;
7969;SDS011;4030;52.362;9.206;2023-09-19T00:23:04;2.25;;;1.20;;
7969;SDS011;4030;52.362;9.206;2023-09-19T00:25:30;1.90;;;1.20;;
7969;SDS011;4030;52.362;9.206;2023-09-19T00:28:00;2.17;;;1.08;;
7969;SDS011;4030;52.362;9.206;2023-09-19T00:30:26;2.22;;;1.20;;
7969;SDS011;4030;52.362;9.206;2023-09-19T00:32:52;2.42;;;1.30;;
7969;SDS011;4030;52.362;9.206;2023-09-19T00:35:18;3.78;;;1.30;;
7969;SDS011;4030;52.362;9.206;2023-09-19T00:37:48;1.83;;;1.35;;
7969;SDS011;4030;52.362;9.206;2023-09-19T00:40:15;2.97;;;1.38;;
7969;SDS011;4030;52.362;9.206;2023-09-19T00:42:42;1.65;;;1.30;;
7969;SDS011;4030;52.362;9.206;2023-09-19T00:45:08;2.35;;;1.30;;
7969;SDS011;4030;52.362;9.206;2023-09-19T00:47:40;3.85;;;1.20;;
7969;SDS011;4030;52.362;9.206;2023-09-19T00:50:10;2.60;;;1.20;;
7969;SDS011;4030;52.362;9.206;2023-09-19T00:52:39;1.60;;;1.08;;
7969;SDS011;4030;52.362;9.206;2023-09-19T00:55:07;2.25;;;1.30;;
7969;SDS011;4030;52.362;9.206;2023-09-19T00:57:37;3.33;;;1.40;;
7969;SDS011;4030;52.362;9.206;2023-09-19T01:00:04;2.17;;;1.33;;
7969;SDS011;4030;52.362;9.206;2023-09-19T01:02:33;2.22;;;1.33;;
7969;SDS011;4030;52.362;9.206;2023-09-19T01:04:59;2.28;;;1.33;;
7969;SDS011;4030;52.362;9.206;2023-09-19T01:07:26;2.00;;;1.30;;
7969;SDS011;4030;52.362;9.206;2023-09-19T01:09:55;2.63;;;1.52;;
7969;SDS011;4030;52.362;9.206;2023-09-19T01:12:26;1.92;;;1.40;;
7969;SDS011;4030;52.362;9.206;2023-09-19T01:21:11;2.53;;;1.33;;
7969;SDS011;4030;52.362;9.206;2023-09-19T01:26:53;2.45;;;1.50;;
7969;SDS011;4030;52.362;9.206;2023-09-19T01:29:49;3.70;;;1.48;;
7969;SDS011;4030;52.362;9.206;2023-09-19T01:32:16;2.40;;;1.55;;
7969;SDS011;4030;52.362;9.206;2023-09-19T01:37:19;1.85;;;1.38;;
7969;SDS011;4030;52.362;9.206;2023-09-19T01:39:55;3.45;;;1.40;;
7969;SDS011;4030;52.362;9.206;2023-09-19T01:42:43;3.08;;;1.60;;
7969;SDS011;4030;52.362;9.206;2023-09-19T01:51:05;2.85;;;1.73;;
7969;SDS011;4030;52.362;9.206;2023-09-19T01:53:33;2.85;;;1.52;;
7969;SDS011;4030;52.362;9.206;2023-09-19T01:56:12;3.08;;;1.67;;
7969;SDS011;4030;52.362;9.206;2023-09-19T01:58:48;3.63;;;1.60;;
7969;SDS011;4030;52.362;9.206;2023-09-19T02:01:20;3.30;;;1.73;;
7969;SDS011;4030;52.362;9.206;2023-09-19T02:03:49;2.72;;;1.80;;
7969;SDS011;4030;52.362;9.206;2023-09-19T02:06:16;4.63;;;1.88;;
7969;SDS011;4030;52.362;9.206;2023-09-19T02:08:44;4.25;;;1.88;;
7969;SDS011;4030;52.362;9.206;2023-09-19T02:11:11;3.90;;;1.80;;
7969;SDS011;4030;52.362;9.206;2023-09-19T02:13:38;3.53;;;1.88;;
7969;SDS011;4030;52.362;9.206;2023-09-19T02:16:03;4.13;;;1.77;;
7969;SDS011;4030;52.362;9.206;2023-09-19T02:18:29;3.15;;;1.50;;
7969;SDS011;4030;52.362;9.206;2023-09-19T02:20:55;2.92;;;1.60;;
7969;SDS011;4030;52.362;9.206;2023-09-19T02:23:23;3.75;;;1.80;;
7969;SDS011;4030;52.362;9.206;2023-09-19T02:25:56;3.55;;;1.73;;
7969;SDS011;4030;52.362;9.206;2023-09-19T02:28:41;3.13;;;1.80;;
7969;SDS011;4030;52.362;9.206;2023-09-19T02:31:07;3.20;;;1.73;;
7969;SDS011;4030;52.362;9.206;2023-09-19T02:33:32;2.60;;;1.60;;
7969;SDS011;4030;52.362;9.206;2023-09-19T02:35:58;3.33;;;1.70;;
7969;SDS011;4030;52.362;9.206;2023-09-19T02:38:25;3.25;;;1.65;;
7969;SDS011;4030;52.362;9.206;2023-09-19T02:40:54;2.83;;;1.70;;
7969;SDS011;4030;52.362;9.206;2023-09-19T02:43:21;4.38;;;2.13;;
7969;SDS011;4030;52.362;9.206;2023-09-19T02:45:47;2.70;;;1.75;;
7969;SDS011;4030;52.362;9.206;2023-09-19T02:48:20;4.15;;;2.00;;
7969;SDS011;4030;52.362;9.206;2023-09-19T02:50:46;2.85;;;1.52;;
7969;SDS011;4030;52.362;9.206;2023-09-19T02:53:14;3.03;;;1.70;;
7969;SDS011;4030;52.362;9.206;2023-09-19T02:55:40;4.22;;;1.80;;
7969;SDS011;4030;52.362;9.206;2023-09-19T02:58:07;2.67;;;1.60;;
7969;SDS011;4030;52.362;9.206;2023-09-19T03:00:33;4.03;;;1.92;;
7969;SDS011;4030;52.362;9.206;2023-09-19T03:03:00;3.38;;;1.92;;
7969;SDS011;4030;52.362;9.206;2023-09-19T03:05:27;5.80;;;2.05;;
7969;SDS011;4030;52.362;9.206;2023-09-19T03:07:55;3.05;;;1.70;;
7969;SDS011;4030;52.362;9.206;2023-09-19T03:10:22;4.68;;;1.80;;
7969;SDS011;4030;52.362;9.206;2023-09-19T03:12:49;4.28;;;1.90;;
7969;SDS011;4030;52.362;9.206;2023-09-19T03:15:15;5.50;;;2.03;;
7969;SDS011;4030;52.362;9.206;2023-09-19T03:17:43;4.70;;;1.77;;
7969;SDS011;4030;52.362;9.206;2023-09-19T03:20:10;4.82;;;1.92;;
7969;SDS011;4030;52.362;9.206;2023-09-19T03:22:38;3.60;;;1.80;;
7969;SDS011;4030;52.362;9.206;2023-09-19T03:25:05;3.90;;;1.95;;
7969;SDS011;4030;52.362;9.206;2023-09-19T03:27:35;4.55;;;2.38;;
7969;SDS011;4030;52.362;9.206;2023-09-19T03:30:01;4.55;;;1.80;;
7969;SDS011;4030;52.362;9.206;2023-09-19T03:32:33;4.93;;;1.75;;
7969;SDS011;4030;52.362;9.206;2023-09-19T03:34:59;3.90;;;1.83;;
7969;SDS011;4030;52.362;9.206;2023-09-19T03:37:25;4.35;;;1.70;;
7969;SDS011;4030;52.362;9.206;2023-09-19T03:39:51;4.05;;;1.95;;
7969;SDS011;4030;52.362;9.206;2023-09-19T03:42:17;4.20;;;1.75;;
7969;SDS011;4030;52.362;9.206;2023-09-19T03:44:42;5.25;;;1.75;;
7969;SDS011;4030;52.362;9.206;2023-09-19T03:47:08;4.65;;;2.08;;
7969;SDS011;4030;52.362;9.206;2023-09-19T03:49:34;5.07;;;1.85;;
7969;SDS011;4030;52.362;9.206;2023-09-19T03:51:59;3.42;;;1.67;;
7969;SDS011;4030;52.362;9.206;2023-09-19T03:54:25;3.13;;;1.75;;
7969;SDS011;4030;52.362;9.206;2023-09-19T03:56:51;3.53;;;1.70;;
7969;SDS011;4030;52.362;9.206;2023-09-19T03:59:16;4.45;;;1.80;;
7969;SDS011;4030;52.362;9.206;2023-09-19T04:01:43;4.68;;;1.70;;
7969;SDS011;4030;52.362;9.206;2023-09-19T04:04:09;2.67;;;1.73;;
7969;SDS011;4030;52.362;9.206;2023-09-19T04:06:34;5.20;;;1.88;;
7969;SDS011;4030;52.362;9.206;2023-09-19T04:09:01;5.07;;;1.95;;
7969;SDS011;4030;52.362;9.206;2023-09-19T04:11:28;3.65;;;1.85;;
7969;SDS011;4030;52.362;9.206;2023-09-19T04:13:55;4.80;;;2.05;;
7969;SDS011;4030;52.362;9.206;2023-09-19T04:16:21;4.50;;;1.83;;
7969;SDS011;4030;52.362;9.206;2023-09-19T04:18:47;3.42;;;1.67;;
7969;SDS011;4030;52.362;9.206;2023-09-19T04:21:13;3.78;;;1.90;;
7969;SDS011;4030;52.362;9.206;2023-09-19T04:23:38;3.38;;;1.67;;
7969;SDS011;4030;52.362;9.206;2023-09-19T04:26:04;4.57;;;1.98;;
7969;SDS011;4030;52.362;9.206;2023-09-19T04:28:30;4.15;;;1.80;;
7969;SDS011;4030;52.362;9.206;2023-09-19T04:30:57;4.20;;;2.20;;
7969;SDS011;4030;52.362;9.206;2023-09-19T04:33:24;4.55;;;1.70;;
7969;SDS011;4030;52.362;9.206;2023-09-19T04:35:52;5.53;;;2.00;;
7969;SDS011;4030;52.362;9.206;2023-09-19T04:38:18;6.50;;;1.90;;
7969;SDS011;4030;52.362;9.206;2023-09-19T04:40:44;3.45;;;1.88;;
7969;SDS011;4030;52.362;9.206;2023-09-19T04:43:11;4.38;;;1.85;;
7969;SDS011;4030;52.362;9.206;2023-09-19T04:45:37;4.22;;;1.92;;
7969;SDS011;4030;52.362;9.206;2023-09-19T04:48:05;4.05;;;1.67;;
7969;SDS011;4030;52.362;9.206;2023-09-19T04:50:33;4.20;;;1.67;;
7969;SDS011;4030;52.362;9.206;2023-09-19T04:53:00;4.72;;;2.10;;
7969;SDS011;4030;52.362;9.206;2023-09-19T04:55:26;5.05;;;2.20;;
7969;SDS011;4030;52.362;9.206;2023-09-19T04:57:52;3.42;;;1.95;;
7969;SDS011;4030;52.362;9.206;2023-09-19T05:00:22;4.43;;;1.92;;
7969;SDS011;4030;52.362;9.206;2023-09-19T05:02:52;3.88;;;1.85;;
7969;SDS011;4030;52.362;9.206;2023-09-19T05:05:22;4.70;;;2.05;;
7969;SDS011;4030;52.362;9.206;2023-09-19T05:07:49;5.82;;;1.95;;
7969;SDS011;4030;52.362;9.206;2023-09-19T05:10:16;3.78;;;2.20;;
7969;SDS011;4030;52.362;9.206;2023-09-19T05:12:43;5.32;;;2.05;;
7969;SDS011;4030;52.362;9.206;2023-09-19T05:15:11;6.05;;;2.13;;
7969;SDS011;4030;52.362;9.206;2023-09-19T05:17:37;5.30;;;2.00;;
7969;SDS011;4030;52.362;9.206;2023-09-19T05:20:04;5.30;;;2.20;;
7969;SDS011;4030;52.362;9.206;2023-09-19T05:22:50;3.80;;;2.00;;
7969;SDS011;4030;52.362;9.206;2023-09-19T05:25:33;5.22;;;1.90;;
7969;SDS011;4030;52.362;9.206;2023-09-19T05:28:04;5.80;;;2.17;;
7969;SDS011;4030;52.362;9.206;2023-09-19T05:30:40;5.25;;;2.42;;
7969;SDS011;4030;52.362;9.206;2023-09-19T05:33:08;4.22;;;1.98;;
7969;SDS011;4030;52.362;9.206;2023-09-19T05:35:34;4.03;;;2.17;;
7969;SDS011;4030;52.362;9.206;2023-09-19T05:38:04;5.25;;;2.38;;
7969;SDS011;4030;52.362;9.206;2023-09-19T05:40:33;3.80;;;2.10;;
7969;SDS011;4030;52.362;9.206;2023-09-19T05:43:00;3.75;;;1.77;;
7969;SDS011;4030;52.362;9.206;2023-09-19T05:45:27;4.55;;;2.13;;
7969;SDS011;4030;52.362;9.206;2023-09-19T05:47:53;4.70;;;2.30;;
7969;SDS011;4030;52.362;9.206;2023-09-19T05:50:29;3.70;;;2.10;;
7969;SDS011;4030;52.362;9.206;2023-09-19T05:52:54;3.60;;;1.75;;
7969;SDS011;4030;52.362;9.206;2023-09-19T05:55:21;4.25;;;1.90;;
7969;SDS011;4030;52.362;9.206;2023-09-19T05:57:50;5.47;;;2.10;;
7969;SDS011;4030;52.362;9.206;2023-09-19T06:00:17;4.00;;;2.00;;
7969;SDS011;4030;52.362;9.206;2023-09-19T06:02:54;4.85;;;2.20;;
7969;SDS011;4030;52.362;9.206;2023-09-19T06:05:23;6.00;;;2.20;;
7969;SDS011;4030;52.362;9.206;2023-09-19T06:07:51;4.20;;;2.10;;
7969;SDS011;4030;52.362;9.206;2023-09-19T06:10:17;4.78;;;2.15;;
7969;SDS011;4030;52.362;9.206;2023-09-19T06:12:45;4.55;;;2.15;;
7969;SDS011;4030;52.362;9.206;2023-09-19T06:15:12;4.80;;;2.30;;
7969;SDS011;4030;52.362;9.206;2023-09-19T06:17:46;6.32;;;2.40;;
7969;SDS011;4030;52.362;9.206;2023-09-19T06:20:14;3.33;;;1.80;;
7969;SDS011;4030;52.362;9.206;2023-09-19T06:22:40;4.55;;;2.17;;
7969;SDS011;4030;52.362;9.206;2023-09-19T06:25:07;6.97;;;2.50;;
7969;SDS011;4030;52.362;9.206;2023-09-19T06:27:36;4.80;;;2.15;;
7969;SDS011;4030;52.362;9.206;2023-09-19T06:30:07;5.78;;;2.08;;
7969;SDS011;4030;52.362;9.206;2023-09-19T06:32:34;4.70;;;2.05;;
7969;SDS011;4030;52.362;9.206;2023-09-19T06:35:01;7.82;;;2.30;;
7969;SDS011;4030;52.362;9.206;2023-09-19T06:37:28;6.00;;;2.05;;
7969;SDS011;4030;52.362;9.206;2023-09-19T06:39:54;5.53;;;2.20;;
7969;SDS011;4030;52.362;9.206;2023-09-19T06:42:20;5.68;;;2.10;;
7969;SDS011;4030;52.362;9.206;2023-09-19T06:44:47;5.05;;;2.08;;
7969;SDS011;4030;52.362;9.206;2023-09-19T06:47:14;8.50;;;2.50;;
7969;SDS011;4030;52.362;9.206;2023-09-19T06:49:41;7.43;;;2.55;;
7969;SDS011;4030;52.362;9.206;2023-09-19T06:52:10;3.53;;;1.85;;
7969;SDS011;4030;52.362;9.206;2023-09-19T06:54:36;5.30;;;2.08;;
7969;SDS011;4030;52.362;9.206;2023-09-19T06:57:02;6.78;;;2.65;;
7969;SDS011;4030;52.362;9.206;2023-09-19T06:59:29;5.35;;;2.22;;
7969;SDS011;4030;52.362;9.206;2023-09-19T07:01:54;6.15;;;1.83;;
7969;SDS011;4030;52.362;9.206;2023-09-19T07:04:20;5.93;;;2.60;;
7969;SDS011;4030;52.362;9.206;2023-09-19T07:06:49;5.82;;;2.20;;
7969;SDS011;4030;52.362;9.206;2023-09-19T07:09:15;5.00;;;1.92;;
7969;SDS011;4030;52.362;9.206;2023-09-19T07:11:42;5.93;;;2.20;;
7969;SDS011;4030;52.362;9.206;2023-09-19T07:14:08;5.20;;;2.33;;
7969;SDS011;4030;52.362;9.206;2023-09-19T07:16:36;4.97;;;1.77;;
7969;SDS011;4030;52.362;9.206;2023-09-19T07:19:04;3.90;;;1.83;;
7969;SDS011;4030;52.362;9.206;2023-09-19T07:21:30;7.10;;;2.17;;
7969;SDS011;4030;52.362;9.206;2023-09-19T07:23:59;6.35;;;2.22;;
7969;SDS011;4030;52.362;9.206;2023-09-19T07:26:25;7.05;;;2.47;;
7969;SDS011;4030;52.362;9.206;2023-09-19T07:28:52;4.50;;;2.00;;
7969;SDS011;4030;52.362;9.206;2023-09-19T07:31:19;6.57;;;2.25;;
7969;SDS011;4030;52.362;9.206;2023-09-19T07:33:47;5.22;;;2.17;;
7969;SDS011;4030;52.362;9.206;2023-09-19T07:36:13;5.28;;;2.00;;
7969;SDS011;4030;52.362;9.206;2023-09-19T07:38:40;5.10;;;1.95;;
7969;SDS011;4030;52.362;9.206;2023-09-19T07:41:06;3.97;;;1.90;;
7969;SDS011;4030;52.362;9.206;2023-09-19T07:43:33;5.55;;;2.08;;
7969;SDS011;4030;52.362;9.206;2023-09-19T07:46:07;4.75;;;1.92;;
7969;SDS011;4030;52.362;9.206;2023-09-19T07:48:36;4.93;;;1.88;;
7969;SDS011;4030;52.362;9.206;2023-09-19T07:51:07;5.25;;;2.20;;
7969;SDS011;4030;52.362;9.206;2023-09-19T07:53:34;4.53;;;1.95;;
7969;SDS011;4030;52.362;9.206;2023-09-19T07:56:03;5.07;;;2.20;;
7969;SDS011;4030;52.362;9.206;2023-09-19T07:58:30;6.05;;;2.10;;
7969;SDS011;4030;52.362;9.206;2023-09-19T08:01:02;6.95;;;2.35;;
7969;SDS011;4030;52.362;9.206;2023-09-19T08:03:38;5.13;;;2.00;;
7969;SDS011;4030;52.362;9.206;2023-09-19T08:06:06;5.35;;;2.15;;
7969;SDS011;4030;52.362;9.206;2023-09-19T08:08:33;9.02;;;2.22;;
7969;SDS011;4030;52.362;9.206;2023-09-19T08:11:02;4.65;;;2.10;;
7969;SDS011;4030;52.362;9.206;2023-09-19T08:13:37;3.70;;;1.50;;
7969;SDS011;4030;52.362;9.206;2023-09-19T08:16:11;4.32;;;2.05;;
7969;SDS011;4030;52.362;9.206;2023-09-19T08:18:40;5.18;;;1.90;;
7969;SDS011;4030;52.362;9.206;2023-09-19T08:21:06;4.10;;;1.75;;
7969;SDS011;4030;52.362;9.206;2023-09-19T08:23:35;3.90;;;1.73;;
7969;SDS011;4030;52.362;9.206;2023-09-19T08:26:05;5.38;;;1.98;;
7969;SDS011;4030;52.362;9.206;2023-09-19T08:28:34;4.55;;;1.75;;
7969;SDS011;4030;52.362;9.206;2023-09-19T08:31:03;3.83;;;1.80;;
7969;SDS011;4030;52.362;9.206;2023-09-19T08:33:33;4.97;;;1.90;;
7969;SDS011;4030;52.362;9.206;2023-09-19T08:36:03;6.07;;;1.90;;
7969;SDS011;4030;52.362;9.206;2023-09-19T08:38:31;5.47;;;1.75;;
7969;SDS011;4030;52.362;9.206;2023-09-19T08:40:59;5.00;;;1.88;;
7969;SDS011;4030;52.362;9.206;2023-09-19T08:43:26;6.43;;;2.08;;
7969;SDS011;4030;52.362;9.206;2023-09-19T08:45:58;5.00;;;1.70;;
7969;SDS011;4030;52.362;9.206;2023-09-19T08:48:45;5.03;;;2.20;;
7969;SDS011;4030;52.362;9.206;2023-09-19T08:51:45;5.80;;;1.90;;
7969;SDS011;4030;52.362;9.206;2023-09-19T08:54:24;4.55;;;1.67;;
7969;SDS011;4030;52.362;9.206;2023-09-19T08:56:54;4.88;;;1.92;;
7969;SDS011;4030;52.362;9.206;2023-09-19T08:59:27;4.63;;;1.88;;
7969;SDS011;4030;52.362;9.206;2023-09-19T09:01:54;4.28;;;1.90;;
7969;SDS011;4030;52.362;9.206;2023-09-19T09:04:22;4.45;;;1.88;;
7969;SDS011;4030;52.362;9.206;2023-09-19T09:06:48;3.08;;;1.75;;
7969;SDS011;4030;52.362;9.206;2023-09-19T09:09:18;3.83;;;2.08;;
7969;SDS011;4030;52.362;9.206;2023-09-19T09:11:45;3.72;;;1.70;;
7969;SDS011;4030;52.362;9.206;2023-09-19T09:14:13;5.90;;;2.30;;
7969;SDS011;4030;52.362;9.206;2023-09-19T09:16:39;4.80;;;1.80;;
7969;SDS011;4030;52.362;9.206;2023-09-19T09:19:05;5.68;;;2.00;;
7969;SDS011;4030;52.362;9.206;2023-09-19T09:21:30;6.18;;;2.17;;
7969;SDS011;4030;52.362;9.206;2023-09-19T09:24:25;4.65;;;2.05;;
7969;SDS011;4030;52.362;9.206;2023-09-19T09:26:58;3.97;;;1.70;;
7969;SDS011;4030;52.362;9.206;2023-09-19T09:29:58;5.38;;;2.00;;
7969;SDS011;4030;52.362;9.206;2023-09-19T09:32:23;4.63;;;1.90;;
7969;SDS011;4030;52.362;9.206;2023-09-19T09:34:51;3.90;;;1.80;;
7969;SDS011;4030;52.362;9.206;2023-09-19T09:37:21;4.60;;;2.00;;
7969;SDS011;4030;52.362;9.206;2023-09-19T09:39:53;4.10;;;1.60;;
7969;SDS011;4030;52.362;9.206;2023-09-19T09:42:43;5.40;;;2.03;;
7969;SDS011;4030;52.362;9.206;2023-09-19T09:45:20;3.47;;;1.88;;
7969;SDS011;4030;52.362;9.206;2023-09-19T09:48:14;3.60;;;1.88;;
7969;SDS011;4030;52.362;9.206;2023-09-19T09:50:46;4.90;;;1.90;;
7969;SDS011;4030;52.362;9.206;2023-09-19T09:53:23;6.38;;;2.25;;
7969;SDS011;4030;52.362;9.206;2023-09-19T09:58:34;3.92;;;1.73;;
7969;SDS011;4030;52.362;9.206;2023-09-19T10:01:20;4.47;;;2.15;;
7969;SDS011;4030;52.362;9.206;2023-09-19T10:03:52;8.75;;;2.17;;
7969;SDS011;4030;52.362;9.206;2023-09-19T10:06:23;6.60;;;2.40;;
7969;SDS011;4030;52.362;9.206;2023-09-19T10:11:43;3.97;;;2.10;;
7969;SDS011;4030;52.362;9.206;2023-09-19T10:14:11;6.75;;;2.00;;
7969;SDS011;4030;52.362;9.206;2023-09-19T10:16:50;5.65;;;1.90;;
7969;SDS011;4030;52.362;9.206;2023-09-19T10:19:46;4.82;;;1.95;;
7969;SDS011;4030;52.362;9.206;2023-09-19T10:22:22;5.10;;;2.20;;
7969;SDS011;4030;52.362;9.206;2023-09-19T10:24:50;9.07;;;2.35;;
7969;SDS011;4030;52.362;9.206;2023-09-19T10:27:19;6.20;;;2.05;;
7969;SDS011;4030;52.362;9.206;2023-09-19T10:29:47;5.40;;;2.13;;
7969;SDS011;4030;52.362;9.206;2023-09-19T10:32:21;4.70;;;1.80;;
7969;SDS011;4030;52.362;9.206;2023-09-19T10:34:48;4.88;;;2.13;;
7969;SDS011;4030;52.362;9.206;2023-09-19T10:37:16;5.50;;;2.05;;
7969;SDS011;4030;52.362;9.206;2023-09-19T10:39:45;4.55;;;2.20;;
7969;SDS011;4030;52.362;9.206;2023-09-19T10:42:14;5.68;;;1.90;;
7969;SDS011;4030;52.362;9.206;2023-09-19T10:44:45;5.00;;;2.30;;
7969;SDS011;4030;52.362;9.206;2023-09-19T10:47:18;3.97;;;1.83;;
7969;SDS011;4030;52.362;9.206;2023-09-19T10:49:45;4.40;;;2.10;;
7969;SDS011;4030;52.362;9.206;2023-09-19T10:52:12;4.53;;;1.92;;
7969;SDS011;4030;52.362;9.206;2023-09-19T10:54:45;4.32;;;2.00;;
7969;SDS011;4030;52.362;9.206;2023-09-19T10:57:20;6.82;;;2.45;;
7969;SDS011;4030;52.362;9.206;2023-09-19T11:00:05;5.18;;;2.00;;
7969;SDS011;4030;52.362;9.206;2023-09-19T11:05:34;4.45;;;1.95;;
7969;SDS011;4030;52.362;9.206;2023-09-19T11:08:05;4.03;;;2.00;;
7969;SDS011;4030;52.362;9.206;2023-09-19T11:13:25;3.38;;;1.70;;
7969;SDS011;4030;52.362;9.206;2023-09-19T11:24:29;5.43;;;1.70;;
7969;SDS011;4030;52.362;9.206;2023-09-19T11:27:14;3.25;;;1.73;;
7969;SDS011;4030;52.362;9.206;2023-09-19T11:29:42;4.68;;;1.90;;
7969;SDS011;4030;52.362;9.206;2023-09-19T11:32:09;4.38;;;1.92;;
7969;SDS011;4030;52.362;9.206;2023-09-19T11:34:44;3.67;;;1.88;;
7969;SDS011;4030;52.362;9.206;2023-09-19T11:39:38;5.60;;;2.55;;
7969;SDS011;4030;52.362;9.206;2023-09-19T11:46:03;3.83;;;1.60;;
7969;SDS011;4030;52.362;9.206;2023-09-19T11:48:22;4.65;;;1.80;;
7969;SDS011;4030;52.362;9.206;2023-09-19T11:50:52;3.63;;;1.77;;
7969;SDS011;4030;52.362;9.206;2023-09-19T11:53:18;4.00;;;1.77;;
7969;SDS011;4030;52.362;9.206;2023-09-19T11:55:46;3.72;;;1.80;;
7969;SDS011;4030;52.362;9.206;2023-09-19T11:58:14;4.30;;;2.15;;
7969;SDS011;4030;52.362;9.206;2023-09-19T12:00:41;5.07;;;1.83;;
7969;SDS011;4030;52.362;9.206;2023-09-19T12:03:10;4.25;;;2.10;;
7969;SDS011;4030;52.362;9.206;2023-09-19T12:05:39;5.28;;;2.03;;
7969;SDS011;4030;52.362;9.206;2023-09-19T12:08:05;5.25;;;1.83;;
7969;SDS011;4030;52.362;9.206;2023-09-19T12:10:43;3.47;;;1.83;;
7969;SDS011;4030;52.362;9.206;2023-09-19T12:13:17;6.95;;;1.92;;
7969;SDS011;4030;52.362;9.206;2023-09-19T12:15:46;6.40;;;2.10;;
7969;SDS011;4030;52.362;9.206;2023-09-19T12:18:27;3.72;;;1.90;;
7969;SDS011;4030;52.362;9.206;2023-09-19T12:20:54;5.00;;;1.90;;
7969;SDS011;4030;52.362;9.206;2023-09-19T12:23:20;3.75;;;2.13;;
7969;SDS011;4030;52.362;9.206;2023-09-19T12:25:46;4.20;;;1.75;;
7969;SDS011;4030;52.362;9.206;2023-09-19T12:28:17;3.72;;;1.90;;
7969;SDS011;4030;52.362;9.206;2023-09-19T12:30:43;4.07;;;1.90;;
7969;SDS011;4030;52.362;9.206;2023-09-19T12:33:15;5.38;;;2.20;;
7969;SDS011;4030;52.362;9.206;2023-09-19T12:35:44;5.85;;;2.05;;
7969;SDS011;4030;52.362;9.206;2023-09-19T12:38:10;5.97;;;2.20;;
7969;SDS011;4030;52.362;9.206;2023-09-19T12:40:37;4.88;;;2.15;;
7969;SDS011;4030;52.362;9.206;2023-09-19T12:43:07;4.97;;;2.40;;
7969;SDS011;4030;52.362;9.206;2023-09-19T12:45:34;6.38;;;1.92;;
7969;SDS011;4030;52.362;9.206;2023-09-19T12:48:21;4.35;;;2.22;;
7969;SDS011;4030;52.362;9.206;2023-09-19T12:51:01;4.20;;;1.80;;
7969;SDS011;4030;52.362;9.206;2023-09-19T12:53:42;5.85;;;2.30;;
7969;SDS011;4030;52.362;9.206;2023-09-19T12:56:15;4.70;;;1.70;;
7969;SDS011;4030;52.362;9.206;2023-09-19T12:58:49;6.25;;;2.45;;
7969;SDS011;4030;52.362;9.206;2023-09-19T13:01:21;5.47;;;2.22;;
7969;SDS011;4030;52.362;9.206;2023-09-19T13:04:10;6.78;;;1.90;;
7969;SDS011;4030;52.362;9.206;2023-09-19T13:06:51;4.35;;;2.00;;
7969;SDS011;4030;52.362;9.206;2023-09-19T13:09:21;5.47;;;2.25;;
7969;SDS011;4030;52.362;9.206;2023-09-19T13:11:53;5.22;;;2.15;;
7969;SDS011;4030;52.362;9.206;2023-09-19T13:17:06;4.13;;;1.88;;
7969;SDS011;4030;52.362;9.206;2023-09-19T13:19:47;3.78;;;1.92;;
7969;SDS011;4030;52.362;9.206;2023-09-19T13:25:17;5.15;;;1.95;;
7969;SDS011;4030;52.362;9.206;2023-09-19T13:27:44;3.83;;;1.80;;
7969;SDS011;4030;52.362;9.206;2023-09-19T13:30:19;3.75;;;1.85;;
7969;SDS011;4030;52.362;9.206;2023-09-19T13:32:47;5.25;;;1.80;;
7969;SDS011;4030;52.362;9.206;2023-09-19T13:35:14;6.57;;;1.90;;
7969;SDS011;4030;52.362;9.206;2023-09-19T13:37:41;3.40;;;1.80;;
7969;SDS011;4030;52.362;9.206;2023-09-19T13:42:35;4.28;;;2.00;;
7969;SDS011;4030;52.362;9.206;2023-09-19T13:45:04;5.13;;;2.10;;
7969;SDS011;4030;52.362;9.206;2023-09-19T13:47:31;4.50;;;2.10;;
7969;SDS011;4030;52.362;9.206;2023-09-19T13:49:57;3.72;;;2.17;;
7969;SDS011;4030;52.362;9.206;2023-09-19T13:52:24;4.18;;;1.73;;
7969;SDS011;4030;52.362;9.206;2023-09-19T13:54:53;4.65;;;2.10;;
7969;SDS011;4030;52.362;9.206;2023-09-19T13:57:21;4.90;;;1.88;;
7969;SDS011;4030;52.362;9.206;2023-09-19T13:59:48;4.38;;;2.15;;
7969;SDS011;4030;52.362;9.206;2023-09-19T14:02:14;3.75;;;1.95;;
7969;SDS011;4030;52.362;9.206;2023-09-19T14:04:43;5.90;;;2.03;;
7969;SDS011;4030;52.362;9.206;2023-09-19T14:07:09;4.22;;;1.80;;
7969;SDS011;4030;52.362;9.206;2023-09-19T14:09:35;4.75;;;2.10;;
7969;SDS011;4030;52.362;9.206;2023-09-19T14:12:02;3.22;;;1.83;;
7969;SDS011;4030;52.362;9.206;2023-09-19T14:14:28;3.47;;;1.70;;
7969;SDS011;4030;52.362;9.206;2023-09-19T14:16:54;4.32;;;1.90;;
7969;SDS011;4030;52.362;9.206;2023-09-19T14:19:20;5.70;;;2.08;;
7969;SDS011;4030;52.362;9.206;2023-09-19T14:21:46;7.43;;;1.95;;
7969;SDS011;4030;52.362;9.206;2023-09-19T14:24:16;3.97;;;1.90;;
7969;SDS011;4030;52.362;9.206;2023-09-19T14:26:45;4.28;;;1.85;;
7969;SDS011;4030;52.362;9.206;2023-09-19T14:29:11;3.17;;;1.60;;
7969;SDS011;4030;52.362;9.206;2023-09-19T14:31:38;4.95;;;1.65;;
7969;SDS011;4030;52.362;9.206;2023-09-19T14:34:06;3.80;;;1.77;;
7969;SDS011;4030;52.362;9.206;2023-09-19T14:36:35;3.83;;;1.60;;
7969;SDS011;4030;52.362;9.206;2023-09-19T14:39:02;4.28;;;1.85;;
7969;SDS011;4030;52.362;9.206;2023-09-19T14:41:28;5.30;;;2.10;;
7969;SDS011;4030;52.362;9.206;2023-09-19T14:43:56;3.63;;;1.92;;
7969;SDS011;4030;52.362;9.206;2023-09-19T14:46:22;3.55;;;1.90;;
7969;SDS011;4030;52.362;9.206;2023-09-19T14:48:51;3.60;;;1.80;;
7969;SDS011;4030;52.362;9.206;2023-09-19T14:51:17;4.20;;;1.77;;
7969;SDS011;4030;52.362;9.206;2023-09-19T14:53:46;3.17;;;1.80;;
7969;SDS011;4030;52.362;9.206;2023-09-19T14:56:12;3.42;;;1.60;;
7969;SDS011;4030;52.362;9.206;2023-09-19T14:58:43;3.45;;;1.60;;
7969;SDS011;4030;52.362;9.206;2023-09-19T15:01:09;4.95;;;1.75;;
7969;SDS011;4030;52.362;9.206;2023-09-19T15:03:38;2.92;;;1.60;;
7969;SDS011;4030;52.362;9.206;2023-09-19T15:06:06;3.70;;;1.67;;
7969;SDS011;4030;52.362;9.206;2023-09-19T15:08:37;2.70;;;1.55;;
7969;SDS011;4030;52.362;9.206;2023-09-19T15:11:03;2.58;;;1.45;;
7969;SDS011;4030;52.362;9.206;2023-09-19T15:13:30;3.22;;;1.60;;
7969;SDS011;4030;52.362;9.206;2023-09-19T15:16:03;3.63;;;1.50;;
7969;SDS011;4030;52.362;9.206;2023-09-19T15:18:34;3.33;;;1.27;;
7969;SDS011;4030;52.362;9.206;2023-09-19T15:21:04;3.45;;;1.55;;
7969;SDS011;4030;52.362;9.206;2023-09-19T15:23:31;4.25;;;1.50;;
7969;SDS011;4030;52.362;9.206;2023-09-19T15:26:08;3.55;;;1.38;;
7969;SDS011;4030;52.362;9.206;2023-09-19T15:28:36;3.83;;;1.80;;
7969;SDS011;4030;52.362;9.206;2023-09-19T15:33:33;3.15;;;1.67;;
7969;SDS011;4030;52.362;9.206;2023-09-19T15:36:00;2.47;;;1.45;;
7969;SDS011;4030;52.362;9.206;2023-09-19T15:41:35;3.30;;;1.50;;
7969;SDS011;4030;52.362;9.206;2023-09-19T15:44:12;3.70;;;1.67;;
7969;SDS011;4030;52.362;9.206;2023-09-19T15:46:41;3.38;;;1.65;;
7969;SDS011;4030;52.362;9.206;2023-09-19T15:49:07;3.08;;;1.40;;
7969;SDS011;4030;52.362;9.206;2023-09-19T15:51:33;3.63;;;1.52;;
7969;SDS011;4030;52.362;9.206;2023-09-19T15:54:00;3.67;;;1.60;;
7969;SDS011;4030;52.362;9.206;2023-09-19T15:56:32;3.03;;;1.50;;
7969;SDS011;4030;52.362;9.206;2023-09-19T15:58:59;3.90;;;1.30;;
7969;SDS011;4030;52.362;9.206;2023-09-19T16:01:25;2.40;;;1.25;;
7969;SDS011;4030;52.362;9.206;2023-09-19T16:03:52;2.50;;;1.30;;
7969;SDS011;4030;52.362;9.206;2023-09-19T16:06:29;3.08;;;1.30;;
7969;SDS011;4030;52.362;9.206;2023-09-19T16:08:58;3.50;;;1.65;;
7969;SDS011;4030;52.362;9.206;2023-09-19T16:11:26;2.53;;;1.33;;
7969;SDS011;4030;52.362;9.206;2023-09-19T16:13:53;3.22;;;1.35;;
7969;SDS011;4030;52.362;9.206;2023-09-19T16:16:19;3.03;;;1.67;;
7969;SDS011;4030;52.362;9.206;2023-09-19T16:18:51;2.42;;;1.48;;
7969;SDS011;4030;52.362;9.206;2023-09-19T16:21:19;2.83;;;1.50;;
7969;SDS011;4030;52.362;9.206;2023-09-19T16:23:45;3.25;;;1.63;;
7969;SDS011;4030;52.362;9.206;2023-09-19T16:26:12;2.72;;;1.35;;